createdAt,value
2023-05-16T00:01:48.633Z,96950.28
2023-05-16T00:04:15.631Z,96964.75
2023-05-16T00:06:42.484Z,96968.22
2023-05-16T00:09:09.410Z,96989.81
2023-05-16T00:11:38.987Z,96993.38
2023-05-16T00:14:06.121Z,96990.28
2023-05-16T00:16:33.149Z,96994.47
2023-05-16T00:19:01.292Z,96999.34
2023-05-16T00:21:28.520Z,97002.53
2023-05-16T00:23:55.210Z,97018.81
2023-05-16T00:26:22.469Z,97025.41
2023-05-16T00:28:49.153Z,97034.13
2023-05-16T00:31:16.036Z,97027.59
2023-05-16T00:33:42.775Z,97021.50
2023-05-16T00:36:09.515Z,97024.66
2023-05-16T00:38:36.253Z,97024.53
2023-05-16T00:41:04.460Z,97022.38
2023-05-16T00:43:31.391Z,97029.41
2023-05-16T00:45:58.197Z,97025.50
2023-05-16T00:48:25.611Z,97036.84
2023-05-16T00:50:53.416Z,97038.44
2023-05-16T00:53:22.328Z,97022.69
2023-05-16T00:55:49.120Z,97020.53
2023-05-16T00:58:16.544Z,97019.66
2023-05-16T01:00:47.158Z,97027.47
2023-05-16T01:03:15.390Z,97022.16
2023-05-16T01:05:42.273Z,97007.34
2023-05-16T01:08:09.009Z,97010.03
2023-05-16T01:10:57.687Z,97000.63
2023-05-16T01:13:39.110Z,96999.63
2023-05-16T01:16:30.254Z,96984.53
2023-05-16T01:19:16.573Z,96981.94
2023-05-16T01:21:57.591Z,96970.34
2023-05-16T01:24:35.158Z,96959.72
2023-05-16T01:27:05.003Z,96949.00
2023-05-16T01:29:33.638Z,96940.56
2023-05-16T01:32:00.687Z,96942.88
2023-05-16T01:34:27.462Z,96935.91
2023-05-16T01:37:14.682Z,96932.47
2023-05-16T01:39:53.475Z,96922.88
2023-05-16T01:42:24.797Z,96924.09
2023-05-16T01:45:00.154Z,96929.19
2023-05-16T01:47:29.194Z,96931.91
2023-05-16T01:50:09.299Z,96923.13
2023-05-16T01:52:42.602Z,96916.16
2023-05-16T01:55:15.213Z,96895.00
2023-05-16T01:57:42.677Z,96891.41
2023-05-16T02:00:10.183Z,96894.66
2023-05-16T02:02:40.921Z,96895.84
2023-05-16T02:05:09.332Z,96889.91
2023-05-16T02:07:36.473Z,96881.22
2023-05-16T02:10:03.355Z,96877.22
2023-05-16T02:12:30.064Z,96868.97
2023-05-16T02:14:56.720Z,96882.75
2023-05-16T02:17:23.445Z,96862.66
2023-05-16T02:19:50.244Z,96854.63
2023-05-16T02:22:16.862Z,96857.34
2023-05-16T02:24:43.570Z,96850.31
2023-05-16T02:27:12.070Z,96845.91
2023-05-16T02:29:38.832Z,96839.31
2023-05-16T02:32:06.026Z,96825.19
2023-05-16T02:34:32.759Z,96819.13
2023-05-16T02:36:59.457Z,96814.56
2023-05-16T02:39:26.184Z,96814.25
2023-05-16T02:41:53.223Z,96823.22
2023-05-16T02:44:19.904Z,96812.03
2023-05-16T02:46:46.762Z,96813.56
2023-05-16T02:49:13.607Z,96798.88
2023-05-16T02:51:40.220Z,96807.19
2023-05-16T02:54:10.126Z,96811.72
2023-05-16T02:56:37.497Z,96794.06
2023-05-16T02:59:05.169Z,96789.94
2023-05-16T03:01:31.953Z,96769.03
2023-05-16T03:03:58.777Z,96773.28
2023-05-16T03:06:25.646Z,96783.19
2023-05-16T03:08:52.397Z,96768.59
2023-05-16T03:11:21.363Z,96766.31
2023-05-16T03:13:48.472Z,96760.38
2023-05-16T03:16:15.913Z,96768.72
2023-05-16T03:18:43.254Z,96764.06
2023-05-16T03:21:10.814Z,96760.16
2023-05-16T03:23:37.578Z,96764.53
2023-05-16T03:26:05.335Z,96758.81
2023-05-16T03:28:32.183Z,96749.31
2023-05-16T03:30:59.126Z,96753.38
2023-05-16T03:33:25.734Z,96751.69
2023-05-16T03:35:52.825Z,96756.31
2023-05-16T03:38:19.608Z,96748.72
2023-05-16T03:40:46.685Z,96735.09
2023-05-16T03:43:13.606Z,96742.22
2023-05-16T03:45:40.682Z,96745.50
2023-05-16T03:48:09.156Z,96730.72
2023-05-16T03:50:39.477Z,96732.03
2023-05-16T03:53:07.897Z,96733.66
2023-05-16T03:55:35.270Z,96727.03
2023-05-16T03:58:02.135Z,96734.63
2023-05-16T04:00:28.998Z,96733.34
2023-05-16T04:02:55.998Z,96749.34
2023-05-16T04:05:22.768Z,96758.66
2023-05-16T04:07:49.668Z,96757.91
2023-05-16T04:10:16.537Z,96746.81
2023-05-16T04:12:44.673Z,96752.63
2023-05-16T04:15:12.015Z,96773.47
2023-05-16T04:17:38.778Z,96774.41
2023-05-16T04:20:07.237Z,96791.75
2023-05-16T04:22:34.130Z,96803.53
2023-05-16T04:25:01.039Z,96806.13
2023-05-16T04:27:27.876Z,96830.91
2023-05-16T04:29:54.573Z,96822.75
2023-05-16T04:32:21.569Z,96828.28
2023-05-16T04:34:48.692Z,96841.66
2023-05-16T04:37:15.422Z,96841.44
2023-05-16T04:39:42.831Z,96850.13
2023-05-16T04:42:09.653Z,96846.81
2023-05-16T04:44:36.377Z,96847.66
2023-05-16T04:47:03.162Z,96847.38
2023-05-16T04:49:29.852Z,96857.81
2023-05-16T04:51:56.509Z,96853.50
2023-05-16T04:54:23.390Z,96857.78
2023-05-16T04:56:50.718Z,96862.75
2023-05-16T04:59:17.861Z,96859.97
2023-05-16T05:01:44.789Z,96874.81
2023-05-16T05:04:11.562Z,96865.00
2023-05-16T05:06:39.446Z,96881.75
2023-05-16T05:09:06.384Z,96888.66
2023-05-16T05:11:33.180Z,96894.94
2023-05-16T05:13:59.930Z,96893.06
2023-05-16T05:16:26.854Z,96896.69
2023-05-16T05:18:53.749Z,96907.22
2023-05-16T05:21:20.933Z,96918.75
2023-05-16T05:23:49.841Z,96909.78
2023-05-16T05:26:17.496Z,96914.50
2023-05-16T05:28:53.717Z,96922.69
2023-05-16T05:31:24.775Z,96924.44
2023-05-16T05:33:51.514Z,96919.00
2023-05-16T05:36:18.188Z,96925.28
2023-05-16T05:38:45.254Z,96928.91
2023-05-16T05:41:12.323Z,96947.75
2023-05-16T05:43:39.153Z,96949.84
2023-05-16T05:46:07.366Z,96960.38
2023-05-16T05:48:34.610Z,96948.53
2023-05-16T05:51:01.529Z,96959.19
2023-05-16T05:53:28.254Z,96976.09
2023-05-16T05:55:54.944Z,96975.25
2023-05-16T05:58:21.800Z,96993.13
2023-05-16T06:00:48.635Z,97002.78
2023-05-16T06:03:15.484Z,97012.28
2023-05-16T06:05:42.643Z,97019.47
2023-05-16T06:08:09.618Z,97042.56
2023-05-16T06:10:36.286Z,97048.84
2023-05-16T06:13:03.168Z,97059.25
2023-05-16T06:15:29.926Z,97066.09
2023-05-16T06:17:57.152Z,97074.84
2023-05-16T06:20:24.113Z,97079.25
2023-05-16T06:22:50.887Z,97080.16
2023-05-16T06:25:17.886Z,97094.22
2023-05-16T06:27:44.605Z,97104.13
2023-05-16T06:30:11.550Z,97124.16
2023-05-16T06:32:40.392Z,97138.22
2023-05-16T06:35:08.702Z,97161.47
2023-05-16T06:37:35.374Z,97168.66
2023-05-16T06:40:02.256Z,97179.19
2023-05-16T06:42:29.009Z,97186.84
2023-05-16T06:44:55.871Z,97199.84
2023-05-16T06:47:22.784Z,97190.66
2023-05-16T06:49:49.520Z,97205.16
2023-05-16T06:52:16.302Z,97194.16
2023-05-16T06:54:43.318Z,97196.28
2023-05-16T06:57:10.093Z,97202.72
2023-05-16T06:59:37.193Z,97201.81
2023-05-16T07:02:04.183Z,97199.97
2023-05-16T07:04:31.274Z,97198.88
2023-05-16T07:06:58.109Z,97225.34
2023-05-16T07:09:24.905Z,97229.78
2023-05-16T07:11:51.846Z,97252.09
2023-05-16T07:14:18.816Z,97265.41
2023-05-16T07:16:45.855Z,97281.16
2023-05-16T07:19:12.738Z,97293.50
2023-05-16T07:21:39.658Z,97284.19
2023-05-16T07:24:08.455Z,97300.47
2023-05-16T07:26:35.280Z,97315.00
2023-05-16T07:29:03.017Z,97329.81
2023-05-16T07:31:30.282Z,97337.91
2023-05-16T07:33:57.296Z,97340.78
2023-05-16T07:36:24.296Z,97368.56
2023-05-16T07:38:51.071Z,97371.19
2023-05-16T07:41:17.797Z,97364.09
2023-05-16T07:43:44.728Z,97368.88
2023-05-16T07:46:11.665Z,97385.03
2023-05-16T07:48:38.426Z,97382.16
2023-05-16T07:51:05.253Z,97402.00
2023-05-16T07:53:31.972Z,97406.22
2023-05-16T07:55:58.897Z,97414.25
2023-05-16T07:58:25.812Z,97429.34
2023-05-16T08:00:52.677Z,97442.91
2023-05-16T08:03:19.639Z,97451.13
2023-05-16T08:05:46.651Z,97446.53
2023-05-16T08:08:13.422Z,97476.88
2023-05-16T08:10:40.188Z,97522.22
2023-05-16T08:13:07.118Z,97531.50
2023-05-16T08:15:33.969Z,97540.63
2023-05-16T08:18:01.496Z,97536.72
2023-05-16T08:20:28.481Z,97575.22
2023-05-16T08:22:55.310Z,97581.44
2023-05-16T08:25:22.051Z,97618.84
2023-05-16T08:27:50.623Z,97628.66
2023-05-16T08:30:17.432Z,97638.56
2023-05-16T08:32:44.289Z,97671.19
2023-05-16T08:35:11.519Z,97703.47
2023-05-16T08:37:38.239Z,97733.53
2023-05-16T08:40:08.517Z,97709.56
2023-05-16T08:42:35.836Z,97724.66
2023-05-16T08:45:03.148Z,97765.81
2023-05-16T08:47:32.327Z,97810.75
2023-05-16T08:50:02.924Z,97818.28
2023-05-16T08:52:31.930Z,97827.34
2023-05-16T08:57:33.991Z,97924.97
2023-05-16T09:00:01.233Z,97950.47
2023-05-16T09:02:28.804Z,97943.81
2023-05-16T09:04:57.772Z,97964.16
2023-05-16T09:07:25.212Z,97996.28
2023-05-16T09:09:52.032Z,98003.38
2023-05-16T09:12:20.404Z,98027.00
2023-05-16T09:14:47.630Z,98063.91
2023-05-16T09:17:20.490Z,98061.44
2023-05-16T09:19:53.113Z,98082.09
2023-05-16T09:22:20.995Z,98060.72
2023-05-16T09:24:48.639Z,98070.53
2023-05-16T09:27:16.518Z,98088.16
2023-05-16T09:29:44.385Z,98102.16
2023-05-16T09:32:14.299Z,98129.22
2023-05-16T09:34:49.521Z,98129.94
2023-05-16T09:37:16.448Z,98182.16
2023-05-16T09:39:49.098Z,98207.59
2023-05-16T09:42:17.059Z,98173.94
2023-05-16T09:44:49.030Z,98162.72
2023-05-16T09:47:19.410Z,98137.06
2023-05-16T09:49:47.145Z,98159.50
2023-05-16T09:52:16.771Z,98226.50
2023-05-16T09:54:43.653Z,98198.88
2023-05-16T09:57:10.694Z,98224.97
2023-05-16T09:59:39.071Z,98254.31
2023-05-16T10:02:08.714Z,98257.09
2023-05-16T10:04:36.199Z,98264.97
2023-05-16T10:07:09.781Z,98262.97
2023-05-16T10:09:39.492Z,98241.06
2023-05-16T10:12:09.489Z,98258.50
2023-05-16T10:14:37.731Z,98267.91
2023-05-16T10:17:07.681Z,98267.00
2023-05-16T10:19:39.387Z,98262.22
2023-05-16T10:22:07.734Z,98272.75
2023-05-16T10:25:09.352Z,98247.44
2023-05-16T10:27:36.702Z,98261.75
2023-05-16T10:30:05.975Z,98260.16
2023-05-16T10:32:33.330Z,98262.38
2023-05-16T10:35:03.771Z,98248.53
2023-05-16T10:37:33.891Z,98271.97
2023-05-16T10:40:01.870Z,98271.41
2023-05-16T10:42:28.584Z,98274.19
2023-05-16T10:45:04.822Z,98264.19
2023-05-16T10:47:32.980Z,98268.59
2023-05-16T10:49:59.960Z,98262.66
2023-05-16T10:52:35.328Z,98258.50
2023-05-16T10:55:04.977Z,98267.13
2023-05-16T10:57:33.251Z,98268.78
2023-05-16T11:00:02.219Z,98264.00
2023-05-16T11:02:30.132Z,98256.88
2023-05-16T11:04:59.739Z,98262.25
2023-05-16T11:07:34.819Z,98274.78
2023-05-16T11:10:17.264Z,98251.22
2023-05-16T11:12:45.845Z,98268.88
2023-05-16T11:15:31.669Z,98276.00
2023-05-16T11:18:08.610Z,98271.97
2023-05-16T11:20:37.725Z,98276.66
2023-05-16T11:23:22.513Z,98273.50
2023-05-16T11:25:53.006Z,98269.03
2023-05-16T11:28:20.998Z,98284.03
2023-05-16T11:30:51.371Z,98282.75
2023-05-16T11:33:18.890Z,98282.75
2023-05-16T11:36:15.362Z,98277.56
2023-05-16T11:38:44.163Z,98269.56
2023-05-16T11:41:11.851Z,98267.84
2023-05-16T11:43:43.394Z,98258.25
2023-05-16T11:46:17.163Z,98276.53
2023-05-16T11:48:46.200Z,98281.44
2023-05-16T11:51:14.916Z,98278.03
2023-05-16T11:53:41.906Z,98273.22
2023-05-16T11:56:09.100Z,98264.41
2023-05-16T11:58:37.189Z,98289.59
2023-05-16T12:01:08.175Z,98283.03
2023-05-16T12:03:37.106Z,98280.88
2023-05-16T12:06:04.571Z,98281.50
2023-05-16T12:08:31.355Z,98285.91
2023-05-16T12:10:58.803Z,98274.34
2023-05-16T12:13:26.114Z,98285.47
2023-05-16T12:15:53.321Z,98281.91
2023-05-16T12:18:22.034Z,98285.94
2023-05-16T12:20:49.213Z,98289.44
2023-05-16T12:23:16.600Z,98292.69
2023-05-16T12:25:47.898Z,98282.78
2023-05-16T12:28:15.364Z,98284.47
2023-05-16T12:30:43.945Z,98295.63
2023-05-16T12:33:15.484Z,98293.84
2023-05-16T12:35:44.637Z,98298.34
2023-05-16T12:38:13.521Z,98285.94
2023-05-16T12:40:42.842Z,98290.38
2023-05-16T12:43:17.188Z,98305.19
2023-05-16T12:45:53.615Z,98307.78
2023-05-16T12:48:21.076Z,98306.63
2023-05-16T12:50:48.984Z,98304.91
2023-05-16T12:53:17.566Z,98312.88
2023-05-16T12:55:45.188Z,98309.44
2023-05-16T12:58:12.191Z,98312.34
2023-05-16T13:00:39.306Z,98313.22
2023-05-16T13:03:08.065Z,98315.63
2023-05-16T13:05:36.569Z,98319.81
2023-05-16T13:08:04.001Z,98316.28
2023-05-16T13:10:30.969Z,98317.00
2023-05-16T13:13:00.336Z,98316.22
2023-05-16T13:15:27.957Z,98323.53
2023-05-16T13:17:55.203Z,98312.47
2023-05-16T13:20:22.206Z,98318.81
2023-05-16T13:22:49.205Z,98322.31
2023-05-16T13:25:16.344Z,98319.66
2023-05-16T13:27:43.152Z,98325.09
2023-05-16T13:30:10.236Z,98320.28
2023-05-16T13:32:37.235Z,98330.94
2023-05-16T13:35:04.381Z,98325.09
2023-05-16T13:37:31.607Z,98335.81
2023-05-16T13:39:58.493Z,98333.69
2023-05-16T13:42:25.343Z,98332.88
2023-05-16T13:44:52.318Z,98338.31
2023-05-16T13:47:19.067Z,98337.78
2023-05-16T13:49:46.057Z,98342.28
2023-05-16T13:52:12.898Z,98342.09
2023-05-16T13:54:41.747Z,98341.22
2023-05-16T13:57:08.786Z,98346.22
2023-05-16T14:00:03.419Z,98350.84
2023-05-16T14:02:22.688Z,98338.38
2023-05-16T14:04:50.204Z,98340.50
2023-05-16T14:07:17.192Z,98351.84
2023-05-16T14:09:44.781Z,98342.38
2023-05-16T14:12:11.769Z,98344.72
2023-05-16T14:14:39.045Z,98342.44
2023-05-16T14:17:06.764Z,98341.84
2023-05-16T14:19:34.461Z,98341.19
2023-05-16T14:22:01.293Z,98345.75
2023-05-16T14:24:28.113Z,98342.22
2023-05-16T14:26:58.399Z,98334.69
2023-05-16T14:29:25.944Z,98342.78
2023-05-16T14:31:53.367Z,98332.59
2023-05-16T14:34:20.514Z,98331.16
2023-05-16T14:36:47.561Z,98330.03
2023-05-16T14:39:14.392Z,98332.81
2023-05-16T14:41:41.218Z,98332.16
2023-05-16T14:44:08.046Z,98319.91
2023-05-16T14:46:34.778Z,98325.72
2023-05-16T14:49:01.681Z,98339.78
2023-05-16T14:51:28.543Z,98335.09
2023-05-16T14:53:55.546Z,98333.16
2023-05-16T14:56:22.865Z,98329.97
2023-05-16T15:16:45.352Z,98340.78
2023-05-16T15:19:12.284Z,98345.50
2023-05-16T15:21:39.182Z,98346.44
2023-05-16T15:24:06.945Z,98340.72
2023-05-16T15:26:33.937Z,98345.25
2023-05-16T15:29:00.762Z,98349.25
2023-05-16T15:31:27.652Z,98355.81
2023-05-16T15:33:54.434Z,98346.50
2023-05-16T15:36:21.224Z,98353.94
2023-05-16T15:38:48.000Z,98351.06
2023-05-16T15:41:36.755Z,98358.16
2023-05-16T15:44:02.867Z,98359.41
2023-05-16T15:46:33.117Z,98361.75
2023-05-16T15:49:00.227Z,98354.56
2023-05-16T15:51:27.060Z,98355.25
2023-05-16T15:53:53.782Z,98366.47
2023-05-16T15:56:21.710Z,98375.78
2023-05-16T15:58:48.809Z,98376.59
2023-05-16T16:01:16.717Z,98372.88
2023-05-16T16:03:43.785Z,98373.94
2023-05-16T16:06:10.973Z,98373.44
2023-05-16T16:08:37.859Z,98384.84
2023-05-16T16:11:05.555Z,98372.84
2023-05-16T16:13:33.246Z,98378.31
2023-05-16T16:16:00.090Z,98375.75
2023-05-16T16:18:27.225Z,98373.53
2023-05-16T16:20:54.304Z,98367.50
2023-05-16T16:23:21.842Z,98363.34
2023-05-16T16:25:48.608Z,98365.34
2023-05-16T16:28:15.495Z,98370.16
2023-05-16T16:30:44.292Z,98369.00
2023-05-16T16:33:11.132Z,98360.44
2023-05-16T16:35:38.179Z,98361.03
2023-05-16T16:38:07.218Z,98354.31
2023-05-16T16:40:34.842Z,98364.59
2023-05-16T16:43:01.802Z,98369.06
2023-05-16T16:45:29.924Z,98364.13
2023-05-16T16:47:57.932Z,98354.72
2023-05-16T16:50:25.110Z,98355.66
2023-05-16T16:52:51.837Z,98349.66
2023-05-16T16:55:18.626Z,98345.47
2023-05-16T16:57:46.053Z,98348.44
2023-05-16T17:00:14.366Z,98355.38
2023-05-16T17:02:41.270Z,98356.44
2023-05-16T17:05:10.489Z,98357.34
2023-05-16T17:07:37.424Z,98364.25
2023-05-16T17:10:05.009Z,98358.72
2023-05-16T17:12:34.775Z,98365.19
2023-05-16T17:15:02.084Z,98363.06
2023-05-16T17:17:29.234Z,98358.44
2023-05-16T17:19:56.229Z,98361.47
2023-05-16T17:22:23.033Z,98368.72
2023-05-16T17:24:49.856Z,98360.88
2023-05-16T17:27:17.144Z,98356.16
2023-05-16T17:29:43.864Z,98368.53
2023-05-16T17:32:10.591Z,98369.00
2023-05-16T17:34:37.383Z,98379.78
2023-05-16T17:37:06.310Z,98368.09
2023-05-16T17:39:33.957Z,98368.38
2023-05-16T17:42:00.841Z,98368.00
2023-05-16T17:44:27.775Z,98370.88
2023-05-16T17:46:54.651Z,98373.25
2023-05-16T17:49:21.909Z,98374.50
2023-05-16T17:51:54.063Z,98369.34
2023-05-16T17:54:22.220Z,98368.59
2023-05-16T17:56:50.625Z,98370.97
2023-05-16T17:59:17.848Z,98368.91
2023-05-16T18:01:44.746Z,98365.03
2023-05-16T18:04:12.019Z,98361.78
2023-05-16T18:06:39.417Z,98361.09
2023-05-16T18:09:09.885Z,98363.31
2023-05-16T18:11:38.756Z,98355.94
2023-05-16T18:14:05.509Z,98361.88
2023-05-16T18:16:32.351Z,98349.78
2023-05-16T18:18:59.369Z,98356.34
2023-05-16T18:21:26.275Z,98364.13
2023-05-16T18:23:55.309Z,98352.28
2023-05-16T18:26:23.373Z,98368.41
2023-05-16T18:28:50.269Z,98360.47
2023-05-16T18:31:17.234Z,98360.78
2023-05-16T18:33:44.198Z,98355.63
2023-05-16T18:36:11.361Z,98354.53
2023-05-16T18:38:38.223Z,98351.03
2023-05-16T18:41:06.520Z,98365.94
2023-05-16T18:43:35.581Z,98358.00
2023-05-16T18:46:03.539Z,98361.91
2023-05-16T18:48:31.040Z,98348.88
2023-05-16T18:50:57.975Z,98363.06
2023-05-16T18:53:24.890Z,98370.19
2023-05-16T18:55:51.842Z,98367.66
2023-05-16T18:58:19.266Z,98370.09
2023-05-16T19:00:46.582Z,98376.56
2023-05-16T19:03:13.632Z,98369.88
2023-05-16T19:05:40.747Z,98367.25
2023-05-16T19:08:07.727Z,98370.31
2023-05-16T19:10:38.210Z,98358.00
2023-05-16T19:13:09.133Z,98368.84
2023-05-16T19:15:36.745Z,98359.53
2023-05-16T19:18:07.299Z,98366.19
2023-05-16T19:20:35.352Z,98372.97
2023-05-16T19:23:03.469Z,98366.50
2023-05-16T19:25:30.748Z,98365.06
2023-05-16T19:27:57.703Z,98378.19
2023-05-16T19:30:25.000Z,98371.84
2023-05-16T19:32:51.980Z,98358.53
2023-05-16T19:35:22.831Z,98358.25
2023-05-16T19:37:49.632Z,98358.81
2023-05-16T19:40:17.392Z,98349.97
2023-05-16T19:42:44.466Z,98342.94
2023-05-16T19:45:11.703Z,98351.72
2023-05-16T19:47:38.669Z,98353.13
2023-05-16T19:50:06.957Z,98350.59
2023-05-16T19:52:33.825Z,98350.59
2023-05-16T19:55:01.166Z,98351.53
2023-05-16T19:57:28.493Z,98346.94
2023-05-16T19:59:56.009Z,98333.03
2023-05-16T20:02:24.407Z,98335.47
2023-05-16T20:04:51.694Z,98336.69
2023-05-16T20:07:18.642Z,98339.91
2023-05-16T20:09:45.529Z,98338.34
2023-05-16T20:12:12.989Z,98328.66
2023-05-16T20:14:39.728Z,98329.16
2023-05-16T20:17:06.734Z,98329.66
2023-05-16T20:19:33.574Z,98334.38
2023-05-16T20:22:01.447Z,98329.44
2023-05-16T20:24:28.286Z,98321.16
2023-05-16T20:26:55.088Z,98316.63
2023-05-16T20:29:21.829Z,98308.69
2023-05-16T20:31:48.567Z,98298.38
2023-05-16T20:34:15.327Z,98296.63
2023-05-16T20:36:42.039Z,98295.28
2023-05-16T20:39:09.368Z,98289.00
2023-05-16T20:41:36.335Z,98310.16
2023-05-16T20:44:03.079Z,98280.38
2023-05-16T20:46:29.959Z,98300.69
2023-05-16T20:48:56.713Z,98288.50
2023-05-16T20:51:23.583Z,98311.38
2023-05-16T20:53:50.400Z,98320.41
2023-05-16T20:56:17.081Z,98313.25
2023-05-16T20:58:44.044Z,98308.03
2023-05-16T21:01:10.762Z,98317.97
2023-05-16T21:03:37.593Z,98312.59
2023-05-16T21:06:04.708Z,98315.31
2023-05-16T21:08:31.914Z,98298.06
2023-05-16T21:10:58.967Z,98288.75
2023-05-16T21:13:26.105Z,98289.16
2023-05-16T21:15:52.977Z,98300.94
2023-05-16T21:18:19.907Z,98299.31
2023-05-16T21:20:46.833Z,98286.53
2023-05-16T21:23:13.650Z,98273.53
2023-05-16T21:25:41.274Z,98262.59
2023-05-16T21:28:08.187Z,98255.84
2023-05-16T21:30:34.994Z,98237.19
2023-05-16T21:33:02.023Z,98218.94
2023-05-16T21:35:29.308Z,98208.97
2023-05-16T21:37:56.421Z,98198.16
2023-05-16T21:40:25.930Z,98190.59
2023-05-16T21:42:53.057Z,98198.16
2023-05-16T21:45:19.951Z,98217.00
2023-05-16T21:47:47.060Z,98207.75
2023-05-16T21:50:14.214Z,98209.47
2023-05-16T21:52:41.505Z,98222.59
2023-05-16T21:55:08.625Z,98212.41
2023-05-16T21:57:35.611Z,98200.31
2023-05-16T22:00:06.934Z,98198.47
2023-05-16T22:02:34.930Z,98193.91
2023-05-16T22:05:01.926Z,98210.31
2023-05-16T22:07:29.480Z,98214.56
2023-05-16T22:09:56.946Z,98218.69
2023-05-16T22:12:24.414Z,98225.66
2023-05-16T22:14:51.677Z,98223.28
2023-05-16T22:17:19.591Z,98224.78
2023-05-16T22:19:46.927Z,98229.72
2023-05-16T22:22:13.786Z,98221.44
2023-05-16T22:24:40.728Z,98220.69
2023-05-16T22:27:07.637Z,98206.72
2023-05-16T22:29:38.486Z,98195.03
2023-05-16T22:32:09.532Z,98185.78
2023-05-16T22:34:39.839Z,98165.44
2023-05-16T22:37:07.777Z,98164.94
2023-05-16T22:39:34.862Z,98158.69
2023-05-16T22:42:02.037Z,98169.56
2023-05-16T22:44:28.907Z,98163.31
2023-05-16T22:46:55.934Z,98167.84
2023-05-16T22:49:22.649Z,98142.91
2023-05-16T22:51:50.041Z,98145.00
2023-05-16T22:54:17.229Z,98130.56
2023-05-16T22:56:44.010Z,98126.16
2023-05-16T22:59:11.085Z,98123.09
2023-05-16T23:01:37.817Z,98116.72
2023-05-16T23:04:04.932Z,98116.72
2023-05-16T23:06:32.735Z,98111.78
2023-05-16T23:09:04.174Z,98113.94
2023-05-16T23:11:31.813Z,98101.06
2023-05-16T23:13:58.640Z,98091.47
2023-05-16T23:16:25.366Z,98089.22
2023-05-16T23:18:52.318Z,98064.09
2023-05-16T23:21:19.115Z,98065.94
2023-05-16T23:23:45.791Z,98063.91
2023-05-16T23:26:12.672Z,98061.13
2023-05-16T23:28:39.497Z,98058.75
2023-05-16T23:31:09.024Z,98055.38
2023-05-16T23:33:35.934Z,98053.56
2023-05-16T23:36:02.963Z,98040.09
2023-05-16T23:38:29.811Z,98033.38
2023-05-16T23:40:56.481Z,98018.09
2023-05-16T23:43:23.169Z,98028.25
2023-05-16T23:45:49.908Z,98026.19
2023-05-16T23:48:16.667Z,98027.03
2023-05-16T23:50:43.556Z,98016.41
2023-05-16T23:53:10.293Z,98008.19
2023-05-16T23:55:36.983Z,97997.63
2023-05-16T23:58:03.816Z,97995.34
